sensor_id;sensor_type;location;lat;lon;timestamp;pressure;altitude;pressure_sealevel;temperature;humidity
33496;BME280;19836;55.812;37.560;2023-11-19T03:47:18;100416.41;;;-3.26;66.13
33496;BME280;19836;55.812;37.560;2023-11-19T03:49:51;100413.00;;;-3.23;66.37
33496;BME280;19836;55.812;37.560;2023-11-19T03:52:20;100415.03;;;-3.16;66.84
33496;BME280;19836;55.812;37.560;2023-11-19T04:42:02;100367.34;;;-3.05;65.09
33496;BME280;19836;55.812;37.560;2023-11-19T04:44:30;100369.94;;;-3.06;64.70
33496;BME280;19836;55.812;37.560;2023-11-19T04:46:56;100381.22;;;-3.08;64.90
33496;BME280;19836;55.812;37.560;2023-11-19T04:49:23;100375.81;;;-3.13;65.08
33496;BME280;19836;55.812;37.560;2023-11-19T04:51:48;100377.75;;;-3.08;64.51
33496;BME280;19836;55.812;37.560;2023-11-19T04:54:16;100380.63;;;-3.00;64.81
33496;BME280;19836;55.812;37.560;2023-11-19T04:56:47;100377.16;;;-2.99;64.54
33496;BME280;19836;55.812;37.560;2023-11-19T04:59:38;100377.28;;;-2.96;63.86
33496;BME280;19836;55.812;37.560;2023-11-19T05:20:38;100377.25;;;-2.70;62.75
33496;BME280;19836;55.812;37.560;2023-11-19T05:40:41;100383.16;;;-2.50;62.51
33496;BME280;19836;55.812;37.560;2023-11-19T06:15:48;100369.84;;;-2.28;62.92
33496;BME280;19836;55.812;37.560;2023-11-19T06:22:42;100370.75;;;-2.26;62.36
33496;BME280;19836;55.812;37.560;2023-11-19T06:32:49;100371.91;;;-2.18;62.44
33496;BME280;19836;55.812;37.560;2023-11-19T06:35:17;100367.56;;;-2.16;62.28
33496;BME280;19836;55.812;37.560;2023-11-19T06:37:43;100358.03;;;-2.14;61.86
33496;BME280;19836;55.812;37.560;2023-11-19T06:40:09;100358.09;;;-2.13;62.26
33496;BME280;19836;55.812;37.560;2023-11-19T06:42:35;100355.53;;;-2.10;62.20
33496;BME280;19836;55.812;37.560;2023-11-19T06:45:02;100352.03;;;-2.10;62.12
33496;BME280;19836;55.812;37.560;2023-11-19T06:47:31;100348.56;;;-2.09;61.73
33496;BME280;19836;55.812;37.560;2023-11-19T06:49:58;100356.47;;;-2.08;61.29
33496;BME280;19836;55.812;37.560;2023-11-19T06:55:23;100339.84;;;-2.08;61.27
33496;BME280;19836;55.812;37.560;2023-11-19T06:57:50;100352.06;;;-2.09;60.96
33496;BME280;19836;55.812;37.560;2023-11-19T07:00:16;100347.59;;;-2.13;60.95
33496;BME280;19836;55.812;37.560;2023-11-19T07:02:44;100358.09;;;-2.13;60.70
33496;BME280;19836;55.812;37.560;2023-11-19T07:08:09;100358.94;;;-2.12;60.73
33496;BME280;19836;55.812;37.560;2023-11-19T07:10:34;100358.91;;;-2.14;60.88
33496;BME280;19836;55.812;37.560;2023-11-19T07:13:00;100364.13;;;-2.15;60.24
33496;BME280;19836;55.812;37.560;2023-11-19T07:15:28;100353.53;;;-2.18;60.41
33496;BME280;19836;55.812;37.560;2023-11-19T07:17:54;100358.66;;;-2.21;60.29
33496;BME280;19836;55.812;37.560;2023-11-19T07:20:20;100359.53;;;-2.22;60.25
33496;BME280;19836;55.812;37.560;2023-11-19T07:29:05;100358.88;;;-2.15;60.15
33496;BME280;19836;55.812;37.560;2023-11-19T07:31:57;100365.97;;;-2.13;60.39
33496;BME280;19836;55.812;37.560;2023-11-19T08:04:19;100351.38;;;-2.31;59.09
33496;BME280;19836;55.812;37.560;2023-11-19T08:07:14;100357.56;;;-2.29;59.49
33496;BME280;19836;55.812;37.560;2023-11-19T08:09:41;100348.00;;;-2.27;59.36
33496;BME280;19836;55.812;37.560;2023-11-19T08:12:52;100349.94;;;-2.22;59.24
33496;BME280;19836;55.812;37.560;2023-11-19T08:15:17;100338.59;;;-2.21;59.44
33496;BME280;19836;55.812;37.560;2023-11-19T08:18:13;100342.34;;;-2.13;59.70
33496;BME280;19836;55.812;37.560;2023-11-19T08:20:39;100331.22;;;-2.04;59.53
33496;BME280;19836;55.812;37.560;2023-11-19T08:23:31;100327.03;;;-1.96;59.50
33496;BME280;19836;55.812;37.560;2023-11-19T08:26:00;100335.13;;;-1.90;59.55
33496;BME280;19836;55.812;37.560;2023-11-19T08:28:27;100329.06;;;-1.88;59.53
33496;BME280;19836;55.812;37.560;2023-11-19T08:31:01;100329.66;;;-1.96;59.55
33496;BME280;19836;55.812;37.560;2023-11-19T08:34:03;100322.59;;;-2.00;59.50
33496;BME280;19836;55.812;37.560;2023-11-19T08:45:29;100322.06;;;-1.87;59.05
33496;BME280;19836;55.812;37.560;2023-11-19T08:51:15;100323.72;;;-1.91;59.22
33496;BME280;19836;55.812;37.560;2023-11-19T08:54:17;100325.97;;;-2.04;59.01
33496;BME280;19836;55.812;37.560;2023-11-19T08:57:10;100327.63;;;-2.06;59.06
33496;BME280;19836;55.812;37.560;2023-11-19T09:00:05;100328.53;;;-2.06;59.24
33496;BME280;19836;55.812;37.560;2023-11-19T09:13:22;100329.16;;;-2.14;59.47
33496;BME280;19836;55.812;37.560;2023-11-19T09:15:48;100333.44;;;-2.16;59.43
33496;BME280;19836;55.812;37.560;2023-11-19T09:18:14;100322.97;;;-2.16;59.58
33496;BME280;19836;55.812;37.560;2023-11-19T10:33:20;100234.94;;;-2.35;59.45
33496;BME280;19836;55.812;37.560;2023-11-19T12:01:59;100212.94;;;-2.09;58.72
33496;BME280;19836;55.812;37.560;2023-11-19T12:04:27;100217.31;;;-2.09;59.23
33496;BME280;19836;55.812;37.560;2023-11-19T12:07:16;100220.81;;;-2.10;58.96
33496;BME280;19836;55.812;37.560;2023-11-19T12:44:10;100194.16;;;-2.25;58.11
33496;BME280;19836;55.812;37.560;2023-11-19T12:46:36;100191.31;;;-2.31;57.89
33496;BME280;19836;55.812;37.560;2023-11-19T12:51:52;100176.13;;;-2.44;57.98
33496;BME280;19836;55.812;37.560;2023-11-19T12:54:31;100170.69;;;-2.50;58.02
33496;BME280;19836;55.812;37.560;2023-11-19T13:04:18;100165.56;;;-2.77;57.43
33496;BME280;19836;55.812;37.560;2023-11-19T13:07:39;100161.16;;;-2.78;58.00
33496;BME280;19836;55.812;37.560;2023-11-19T13:11:10;100162.44;;;-2.63;57.84
33496;BME280;19836;55.812;37.560;2023-11-19T13:14:00;100164.34;;;-2.58;57.72
33496;BME280;19836;55.812;37.560;2023-11-19T13:17:18;100164.16;;;-2.64;57.35
33496;BME280;19836;55.812;37.560;2023-11-19T13:19:49;100157.16;;;-2.65;57.75
33496;BME280;19836;55.812;37.560;2023-11-19T13:22:35;100155.44;;;-2.63;57.74
33496;BME280;19836;55.812;37.560;2023-11-19T13:25:05;100158.94;;;-2.64;57.31
33496;BME280;19836;55.812;37.560;2023-11-19T13:27:49;100145.91;;;-2.61;57.76
33496;BME280;19836;55.812;37.560;2023-11-19T13:30:27;100148.56;;;-2.60;57.27
33496;BME280;19836;55.812;37.560;2023-11-19T13:33:11;100147.69;;;-2.60;57.68
33496;BME280;19836;55.812;37.560;2023-11-19T13:35:49;100133.66;;;-2.61;57.42
33496;BME280;19836;55.812;37.560;2023-11-19T13:38:48;100135.50;;;-2.58;57.73
33496;BME280;19836;55.812;37.560;2023-11-19T13:45:15;100138.84;;;-2.63;57.32
33496;BME280;19836;55.812;37.560;2023-11-19T13:48:04;100135.06;;;-2.73;57.33
33496;BME280;19836;55.812;37.560;2023-11-19T13:53:33;100137.25;;;-2.88;57.71
33496;BME280;19836;55.812;37.560;2023-11-19T14:07:46;100146.09;;;-3.14;57.12
33496;BME280;19836;55.812;37.560;2023-11-19T14:10:17;100154.69;;;-3.18;57.18
33496;BME280;19836;55.812;37.560;2023-11-19T14:12:47;100144.22;;;-3.18;57.35
33496;BME280;19836;55.812;37.560;2023-11-19T14:15:14;100149.38;;;-3.21;57.53
33496;BME280;19836;55.812;37.560;2023-11-19T14:17:44;100138.91;;;-3.21;57.78
33496;BME280;19836;55.812;37.560;2023-11-19T14:20:10;100145.09;;;-3.17;57.99
33496;BME280;19836;55.812;37.560;2023-11-19T14:26:47;100143.69;;;-3.07;57.76
33496;BME280;19836;55.812;37.560;2023-11-19T14:29:17;100144.59;;;-3.06;57.34
33496;BME280;19836;55.812;37.560;2023-11-19T14:31:44;100150.75;;;-3.04;57.30
33496;BME280;19836;55.812;37.560;2023-11-19T14:34:13;100158.91;;;-2.95;57.94
33496;BME280;19836;55.812;37.560;2023-11-19T14:36:47;100152.06;;;-2.90;57.64
33496;BME280;19836;55.812;37.560;2023-11-19T17:32:09;100061.41;;;-2.82;58.58
33496;BME280;19836;55.812;37.560;2023-11-19T17:41:21;100062.09;;;-2.89;58.65
33496;BME280;19836;55.812;37.560;2023-11-19T17:44:37;100056.16;;;-2.82;58.52
33496;BME280;19836;55.812;37.560;2023-11-19T17:51:37;100058.66;;;-2.87;59.06
